Time,TemperatureF,DewpointF,PressureIn,WindDirection,WindDirectionDegrees,WindSpeedMPH,WindSpeedGustMPH,Humidity,HourlyPrecipIn,Conditions,Clouds,dailyrainin,SoftwareType,DateUTC
2013-09-09 00:01:00,83.8,68.4,29.70,South,184,4.6,4.6,60,0.00,CLR,,0.00,WeatherDisplay:10.37,2013-09-09 05:01:00,
2013-09-09 00:06:00,83.7,68.3,29.71,South,184,3.5,3.5,60,0.00,CLR,,0.00,WeatherDisplay:10.37,2013-09-09 05:06:00,
2013-09-09 00:11:00,83.7,68.3,29.70,South,185,4.0,4.0,60,0.00,CLR,,0.00,WeatherDisplay:10.37,2013-09-09 05:11:00,
2013-09-09 00:16:00,83.7,67.8,29.70,South,184,7.0,7.0,59,0.00,CLR,,0.00,WeatherDisplay:10.37,2013-09-09 05:16:00,
2013-09-09 00:21:00,83.6,68.2,29.71,South,185,2.3,2.3,60,0.00,CLR,,0.00,WeatherDisplay:10.37,2013-09-09 05:21:00,
2013-09-09 00:26:00,83.5,68.2,29.70,South,185,9.0,9.0,60,0.00,CLR,,0.00,WeatherDisplay:10.37,2013-09-09 05:26:00,
2013-09-09 00:31:00,83.4,68.1,29.70,South,185,6.0,6.0,60,0.00,CLR,,0.00,WeatherDisplay:10.37,2013-09-09 05:31:00,
2013-09-09 00:36:00,83.3,68.0,29.70,South,185,9.2,9.2,60,0.00,CLR,,0.00,WeatherDisplay:10.37,2013-09-09 05:36:00,
2013-09-09 00:41:00,83.2,67.9,29.70,South,185,3.5,3.5,60,0.00,CLR,,0.00,WeatherDisplay:10.37,2013-09-09 05:41:00,
2013-09-09 00:46:00,83.0,67.7,29.70,South,184,7.0,7.0,60,0.00,CLR,,0.00,WeatherDisplay:10.37,2013-09-09 05:46:00,
2013-09-09 00:51:00,82.9,67.6,29.71,South,185,5.8,5.8,60,0.00,CLR,,0.00,WeatherDisplay:10.37,2013-09-09 05:51:00,
2013-09-09 00:56:00,82.7,67.9,29.71,South,185,6.9,6.9,61,0.00,CLR,,0.00,WeatherDisplay:10.37,2013-09-09 05:56:00,
2013-09-09 01:01:00,82.5,67.7,29.70,South,185,1.2,1.2,61,0.00,CLR,,0.00,WeatherDisplay:10.37,2013-09-09 06:01:00,
2013-09-09 01:06:00,82.4,67.6,29.71,South,185,6.9,6.9,61,0.00,CLR,,0.00,WeatherDisplay:10.37,2013-09-09 06:06:00,
2013-09-09 01:11:00,82.2,67.4,29.71,South,185,3.5,3.5,61,0.00,CLR,,0.00,WeatherDisplay:10.37,2013-09-09 06:11:00,
2013-09-09 01:16:00,82.1,67.8,29.71,South,184,6.0,6.0,62,0.00,CLR,,0.00,WeatherDisplay:10.37,2013-09-09 06:16:00,
2013-09-09 01:21:00,82.0,67.7,29.71,South,184,3.5,3.5,62,0.00,CLR,,0.00,WeatherDisplay:10.37,2013-09-09 06:21:00,
2013-09-09 01:26:00,81.9,67.6,29.71,South,185,3.5,3.5,62,0.00,CLR,,0.00,WeatherDisplay:10.37,2013-09-09 06:26:00,
2013-09-09 01:31:00,81.8,67.5,29.71,South,185,3.5,3.5,62,0.00,CLR,,0.00,WeatherDisplay:10.37,2013-09-09 06:31:00,
2013-09-09 01:36:00,81.6,67.8,29.71,South,184,3.5,3.5,63,0.00,CLR,,0.00,WeatherDisplay:10.37,2013-09-09 06:36:00,
2013-09-09 01:41:00,81.4,67.6,29.71,South,185,1.2,1.2,63,0.00,CLR,,0.00,WeatherDisplay:10.37,2013-09-09 06:41:00,
2013-09-09 01:46:00,81.2,67.4,29.71,South,185,1.2,0.0,63,0.00,CLR,,0.00,WeatherDisplay:10.37,2013-09-09 06:46:00,
2013-09-09 01:51:00,81.0,67.7,29.71,South,184,1.2,1.2,64,0.00,CLR,,0.00,WeatherDisplay:10.37,2013-09-09 06:51:00,
2013-09-09 01:56:00,80.8,67.5,29.71,South,185,2.3,0.0,64,0.00,CLR,,0.00,WeatherDisplay:10.37,2013-09-09 06:56:00,
2013-09-09 02:01:00,80.6,67.3,29.71,South,185,1.2,0.0,64,0.00,CLR,,0.00,WeatherDisplay:10.37,2013-09-09 07:01:00,
2013-09-09 02:06:00,80.4,67.6,29.71,South,184,5.0,5.0,65,0.00,CLR,,0.00,WeatherDisplay:10.37,2013-09-09 07:06:00,
2013-09-09 02:11:00,80.3,67.5,29.71,South,184,1.2,1.2,65,0.00,CLR,,0.00,WeatherDisplay:10.37,2013-09-09 07:11:00,
2013-09-09 02:16:00,80.2,67.4,29.71,South,185,2.0,2.0,65,0.00,CLR,,0.00,WeatherDisplay:10.37,2013-09-09 07:16:00,
2013-09-09 02:21:00,80.1,67.3,29.71,South,185,3.5,3.5,65,0.00,CLR,,0.00,WeatherDisplay:10.37,2013-09-09 07:21:00,
2013-09-09 02:26:00,79.9,67.1,29.71,South,185,1.2,1.2,65,0.00,CLR,,0.00,WeatherDisplay:10.37,2013-09-09 07:26:00,
2013-09-09 02:31:00,79.7,67.3,29.71,South,185,0.0,0.0,66,0.00,CLR,,0.00,WeatherDisplay:10.37,2013-09-09 07:31:00,
2013-09-09 02:36:00,79.6,67.2,29.71,South,184,3.5,3.5,66,0.00,CLR,,0.00,WeatherDisplay:10.37,2013-09-09 07:36:00,
2013-09-09 02:41:00,79.5,67.1,29.71,South,185,2.3,2.3,66,0.00,CLR,,0.00,WeatherDisplay:10.37,2013-09-09 07:41:00,
2013-09-09 02:46:00,79.5,67.1,29.71,South,185,2.3,2.3,66,0.00,CLR,,0.00,WeatherDisplay:10.37,2013-09-09 07:46:00,
2013-09-09 02:51:00,79.4,67.0,29.71,South,185,1.2,1.2,66,0.00,CLR,,0.00,WeatherDisplay:10.37,2013-09-09 07:51:00,
2013-09-09 02:56:00,79.3,67.0,29.71,South,184,3.5,3.5,66,0.00,CLR,,0.00,WeatherDisplay:10.37,2013-09-09 07:56:00,
2013-09-09 03:01:00,79.2,67.3,29.71,South,185,3.5,3.5,67,0.00,CLR,,0.00,WeatherDisplay:10.37,2013-09-09 08:01:00,
2013-09-09 03:06:00,79.1,67.2,29.71,South,184,4.6,4.6,67,0.00,CLR,,0.00,WeatherDisplay:10.37,2013-09-09 08:06:00,
2013-09-09 03:11:00,79.1,67.2,29.71,South,184,1.2,0.0,67,0.00,CLR,,0.00,WeatherDisplay:10.37,2013-09-09 08:11:00,
2013-09-09 03:16:00,79.1,67.2,29.71,South,185,3.5,3.5,67,0.00,CLR,,0.00,WeatherDisplay:10.37,2013-09-09 08:16:00,
2013-09-09 03:21:00,79.0,67.1,29.71,South,185,1.2,0.0,67,0.00,CLR,,0.00,WeatherDisplay:10.37,2013-09-09 08:21:00,
2013-09-09 03:26:00,78.9,67.0,29.71,South,184,3.0,3.0,67,0.00,CLR,,0.00,WeatherDisplay:10.37,2013-09-09 08:26:00,
2013-09-09 03:31:00,78.9,67.0,29.71,South,184,3.5,3.5,67,0.00,CLR,,0.00,WeatherDisplay:10.37,2013-09-09 08:31:00,
2013-09-09 03:36:00,78.9,66.6,29.71,South,185,3.5,3.5,66,0.00,CLR,,0.00,WeatherDisplay:10.37,2013-09-09 08:36:00,
2013-09-09 03:41:00,79.1,66.8,29.71,South,184,3.5,3.5,66,0.00,CLR,,0.00,WeatherDisplay:10.37,2013-09-09 08:41:00,
2013-09-09 03:46:00,79.0,66.7,29.71,South,185,3.5,3.5,66,0.00,CLR,,0.00,WeatherDisplay:10.37,2013-09-09 08:46:00,
2013-09-09 03:51:00,78.9,66.6,29.71,South,185,1.2,1.2,66,0.00,CLR,,0.00,WeatherDisplay:10.37,2013-09-09 08:51:00,
2013-09-09 03:57:00,78.8,66.9,29.72,South,184,5.0,5.0,67,0.00,CLR,,0.00,WeatherDisplay:10.37,2013-09-09 08:57:00,
2013-09-09 04:02:00,78.7,66.8,29.72,South,185,3.5,3.5,67,0.00,CLR,,0.00,WeatherDisplay:10.37,2013-09-09 09:02:00,
2013-09-09 04:07:00,78.7,66.8,29.72,South,185,1.2,0.0,67,0.00,CLR,,0.00,WeatherDisplay:10.37,2013-09-09 09:07:00,
2013-09-09 04:12:00,78.7,66.8,29.72,South,184,3.5,3.5,67,0.00,CLR,,0.00,WeatherDisplay:10.37,2013-09-09 09:12:00,
2013-09-09 04:17:00,78.7,66.8,29.72,South,184,2.0,2.0,67,0.00,CLR,,0.00,WeatherDisplay:10.37,2013-09-09 09:17:00,
2013-09-09 04:22:00,78.6,66.7,29.72,South,185,1.2,0.0,67,0.00,CLR,,0.00,WeatherDisplay:10.37,2013-09-09 09:22:00,
2013-09-09 04:27:00,78.5,66.6,29.72,South,185,1.2,1.2,67,0.00,CLR,,0.00,WeatherDisplay:10.37,2013-09-09 09:27:00,
2013-09-09 04:32:00,78.4,66.5,29.72,South,184,2.3,2.3,67,0.00,CLR,,0.00,WeatherDisplay:10.37,2013-09-09 09:32:00,
2013-09-09 04:37:00,78.3,66.4,29.73,South,185,1.2,1.2,67,0.00,CLR,,0.00,WeatherDisplay:10.37,2013-09-09 09:37:00,
2013-09-09 04:42:00,78.3,66.4,29.73,South,185,5.8,5.8,67,0.00,CLR,,0.00,WeatherDisplay:10.37,2013-09-09 09:42:00,
2013-09-09 04:47:00,78.3,66.4,29.73,South,184,1.2,0.0,67,0.00,CLR,,0.00,WeatherDisplay:10.37,2013-09-09 09:47:00,
2013-09-09 04:52:00,78.3,66.4,29.73,South,184,1.2,1.2,67,0.00,CLR,,0.00,WeatherDisplay:10.37,2013-09-09 09:52:00,
2013-09-09 04:57:00,78.2,66.8,29.73,South,184,3.5,3.5,68,0.00,CLR,,0.00,WeatherDisplay:10.37,2013-09-09 09:57:00,
2013-09-09 05:02:00,78.2,66.8,29.73,South,184,6.9,6.9,68,0.00,CLR,,0.00,WeatherDisplay:10.37,2013-09-09 10:02:00,
2013-09-09 05:07:00,78.3,66.9,29.73,South,184,6.9,6.9,68,0.00,CLR,,0.00,WeatherDisplay:10.37,2013-09-09 10:07:00,
2013-09-09 05:12:00,78.3,66.9,29.73,South,185,3.5,3.5,68,0.00,CLR,,0.00,WeatherDisplay:10.37,2013-09-09 10:12:00,
2013-09-09 05:17:00,78.2,66.8,29.73,South,185,5.8,5.8,68,0.00,CLR,,0.00,WeatherDisplay:10.37,2013-09-09 10:17:00,
2013-09-09 05:22:00,78.3,66.9,29.74,South,184,3.5,3.5,68,0.00,CLR,,0.00,WeatherDisplay:10.37,2013-09-09 10:22:00,
2013-09-09 05:27:00,78.2,66.8,29.74,South,185,2.3,2.3,68,0.00,CLR,,0.00,WeatherDisplay:10.37,2013-09-09 10:27:00,
2013-09-09 05:32:00,78.1,66.7,29.74,South,184,2.3,2.3,68,0.00,CLR,,0.00,WeatherDisplay:10.37,2013-09-09 10:32:00,
2013-09-09 05:37:00,78.0,66.6,29.74,South,184,3.5,3.5,68,0.00,CLR,,0.00,WeatherDisplay:10.37,2013-09-09 10:37:00,
2013-09-09 05:42:00,78.0,66.6,29.74,South,185,3.5,3.5,68,0.00,CLR,,0.00,WeatherDisplay:10.37,2013-09-09 10:42:00,
2013-09-09 05:47:00,78.0,66.6,29.74,South,184,3.5,3.5,68,0.00,CLR,,0.00,WeatherDisplay:10.37,2013-09-09 10:47:00,
2013-09-09 05:52:00,78.0,66.6,29.74,South,184,5.8,5.8,68,0.00,CLR,,0.00,WeatherDisplay:10.37,2013-09-09 10:52:00,
2013-09-09 05:57:00,78.0,66.6,29.74,South,185,3.5,3.5,68,0.00,CLR,,0.00,WeatherDisplay:10.37,2013-09-09 10:57:00,
2013-09-09 06:02:00,77.9,66.5,29.74,South,184,4.6,4.6,68,0.00,CLR,,0.00,WeatherDisplay:10.37,2013-09-09 11:02:00,
2013-09-09 06:07:00,77.8,66.4,29.74,South,184,1.2,1.2,68,0.00,CLR,,0.00,WeatherDisplay:10.37,2013-09-09 11:07:00,
2013-09-09 06:12:00,77.6,66.6,29.74,South,185,1.2,1.2,69,0.00,CLR,,0.00,WeatherDisplay:10.37,2013-09-09 11:12:00,
2013-09-09 06:17:00,77.4,66.4,29.74,South,184,4.6,4.6,69,0.00,CLR,,0.00,WeatherDisplay:10.37,2013-09-09 11:17:00,
2013-09-09 06:22:00,77.3,66.3,29.74,South,185,4.6,4.6,69,0.00,CLR,,0.00,WeatherDisplay:10.37,2013-09-09 11:22:00,
2013-09-09 06:27:00,77.3,66.3,29.74,South,185,3.5,3.5,69,0.00,CLR,,0.00,WeatherDisplay:10.37,2013-09-09 11:27:00,
2013-09-09 06:32:00,77.2,66.2,29.74,South,185,4.6,4.6,69,0.00,CLR,,0.00,WeatherDisplay:10.37,2013-09-09 11:32:00,
2013-09-09 06:37:00,77.1,66.1,29.74,South,184,0.0,0.5,69,0.00,CLR,,0.00,WeatherDisplay:10.37,2013-09-09 11:37:00,
2013-09-09 06:42:00,77.0,66.5,29.74,South,185,3.5,0.0,70,0.00,CLR,,0.00,WeatherDisplay:10.37,2013-09-09 11:42:00,
2013-09-09 06:47:00,76.9,66.4,29.75,South,184,1.2,0.0,70,0.00,CLR,,0.00,WeatherDisplay:10.37,2013-09-09 11:47:00,
2013-09-09 06:52:00,76.8,66.3,29.75,South,184,3.5,3.5,70,0.00,CLR,,0.00,WeatherDisplay:10.37,2013-09-09 11:52:00,
2013-09-09 06:57:00,76.9,66.0,29.75,South,185,4.6,4.6,69,0.00,CLR,,0.00,WeatherDisplay:10.37,2013-09-09 11:57:00,
2013-09-09 07:02:00,76.8,65.9,29.75,South,185,3.5,3.5,69,0.00,CLR,,0.00,WeatherDisplay:10.37,2013-09-09 12:02:00,
2013-09-09 07:07:00,76.9,66.0,29.75,South,184,3.5,3.5,69,0.00,CLR,,0.00,WeatherDisplay:10.37,2013-09-09 12:07:00,
2013-09-09 07:12:00,76.9,66.0,29.75,South,185,3.5,3.5,69,0.00,CLR,,0.00,WeatherDisplay:10.37,2013-09-09 12:12:00,
2013-09-09 07:17:00,76.8,65.9,29.76,South,185,1.0,1.0,69,0.00,CLR,,0.00,WeatherDisplay:10.37,2013-09-09 12:17:00,
2013-09-09 07:22:00,76.8,65.9,29.75,South,185,5.8,5.8,69,0.00,CLR,,0.00,WeatherDisplay:10.37,2013-09-09 12:22:00,
2013-09-09 07:27:00,76.9,66.0,29.76,South,185,2.3,2.3,69,0.00,CLR,,0.00,WeatherDisplay:10.37,2013-09-09 12:27:00,
2013-09-09 07:32:00,76.8,66.3,29.76,South,184,1.2,1.2,70,0.00,CLR,,0.00,WeatherDisplay:10.37,2013-09-09 12:32:00,
2013-09-09 07:37:00,76.9,66.0,29.76,South,184,3.5,3.5,69,0.00,CLR,,0.00,WeatherDisplay:10.37,2013-09-09 12:37:00,
2013-09-09 07:42:00,76.9,66.0,29.76,South,184,3.5,3.5,69,0.00,CLR,,0.00,WeatherDisplay:10.37,2013-09-09 12:42:00,
2013-09-09 07:47:00,77.0,66.5,29.76,South,185,3.5,0.0,70,0.00,CLR,,0.00,WeatherDisplay:10.37,2013-09-09 12:47:00,
2013-09-09 07:52:00,77.1,66.1,29.76,South,184,1.2,1.2,69,0.00,CLR,,0.00,WeatherDisplay:10.37,2013-09-09 12:52:00,
2013-09-09 07:57:00,77.2,66.2,29.76,South,184,4.6,4.6,69,0.00,CLR,,0.00,WeatherDisplay:10.37,2013-09-09 12:57:00,
2013-09-09 08:02:00,77.4,66.4,29.77,South,185,1.2,1.2,69,0.00,CLR,,0.00,WeatherDisplay:10.37,2013-09-09 13:02:00,
2013-09-09 08:07:00,77.6,66.6,29.77,South,184,1.2,1.2,69,0.00,CLR,,0.00,WeatherDisplay:10.37,2013-09-09 13:07:00,
2013-09-09 08:12:00,77.7,66.7,29.77,South,184,3.5,3.5,69,0.00,CLR,,0.00,WeatherDisplay:10.37,2013-09-09 13:12:00,
2013-09-09 08:17:00,77.9,66.5,29.77,South,185,0.0,0.2,68,0.00,CLR,,0.00,WeatherDisplay:10.37,2013-09-09 13:17:00,
2013-09-09 08:22:00,78.2,66.8,29.77,South,185,1.2,0.0,68,0.00,CLR,,0.00,WeatherDisplay:10.37,2013-09-09 13:22:00,
2013-09-09 08:27:00,78.4,67.0,29.77,South,184,0.0,0.0,68,0.00,CLR,,0.00,WeatherDisplay:10.37,2013-09-09 13:27:00,
2013-09-09 08:32:00,78.7,66.8,29.77,South,184,1.2,1.2,67,0.00,CLR,,0.00,WeatherDisplay:10.37,2013-09-09 13:32:00,
2013-09-09 08:37:00,78.8,66.9,29.77,South,185,0.0,0.0,67,0.00,CLR,,0.00,WeatherDisplay:10.37,2013-09-09 13:37:00,
2013-09-09 08:42:00,79.2,66.9,29.77,South,184,0.0,0.0,66,0.00,CLR,,0.00,WeatherDisplay:10.37,2013-09-09 13:42:00,
2013-09-09 08:47:00,79.5,67.1,29.77,South,185,1.0,1.0,66,0.00,CLR,,0.00,WeatherDisplay:10.37,2013-09-09 13:47:00,
2013-09-09 08:52:00,80.1,67.3,29.77,South,185,2.0,2.0,65,0.00,CLR,,0.00,WeatherDisplay:10.37,2013-09-09 13:52:00,
2013-09-09 08:57:00,80.5,66.7,29.77,South,185,4.6,4.6,63,0.00,CLR,,0.00,WeatherDisplay:10.37,2013-09-09 13:57:00,
2013-09-09 09:02:00,81.1,66.8,29.77,South,184,3.5,3.5,62,0.00,CLR,,0.00,WeatherDisplay:10.37,2013-09-09 14:02:00,
2013-09-09 09:07:00,81.6,67.8,29.77,South,185,1.2,1.2,63,0.00,CLR,,0.00,WeatherDisplay:10.37,2013-09-09 14:07:00,
2013-09-09 09:12:00,82.1,67.8,29.78,South,184,0.0,0.1,62,0.00,CLR,,0.00,WeatherDisplay:10.37,2013-09-09 14:12:00,
2013-09-09 09:17:00,82.5,67.7,29.78,South,186,6.9,6.9,61,0.00,CLR,,0.00,WeatherDisplay:10.37,2013-09-09 14:17:00,
2013-09-09 09:22:00,82.8,67.5,29.78,South,185,3.0,3.0,60,0.00,CLR,,0.00,WeatherDisplay:10.37,2013-09-09 14:22:00,
2013-09-09 09:27:00,83.2,67.9,29.78,South,185,3.5,3.5,60,0.00,CLR,,0.00,WeatherDisplay:10.37,2013-09-09 14:27:00,
2013-09-09 09:32:00,83.6,68.2,29.78,South,184,0.0,0.1,60,0.00,CLR,,0.00,WeatherDisplay:10.37,2013-09-09 14:32:00,
2013-09-09 09:37:00,84.1,68.2,29.78,South,185,2.3,2.3,59,0.00,CLR,,0.00,WeatherDisplay:10.37,2013-09-09 14:37:00,
2013-09-09 09:42:00,84.4,68.0,29.78,South,185,3.5,3.5,58,0.00,CLR,,0.00,WeatherDisplay:10.37,2013-09-09 14:42:00,
2013-09-09 09:47:00,84.6,67.7,29.78,South,186,5.8,5.8,57,0.00,CLR,,0.00,WeatherDisplay:10.37,2013-09-09 14:47:00,
2013-09-09 09:52:00,84.8,68.4,29.78,South,185,2.3,2.3,58,0.00,CLR,,0.00,WeatherDisplay:10.37,2013-09-09 14:52:00,
2013-09-09 09:57:00,85.4,69.4,29.78,South,185,1.2,1.2,59,0.00,CLR,,0.00,WeatherDisplay:10.37,2013-09-09 14:57:00,
2013-09-09 10:02:00,86.0,69.0,29.78,South,185,1.0,1.0,57,0.00,CLR,,0.00,WeatherDisplay:10.37,2013-09-09 15:02:00,
2013-09-09 10:07:00,86.5,68.4,29.78,South,185,9.2,9.2,55,0.00,CLR,,0.00,WeatherDisplay:10.37,2013-09-09 15:07:00,
2013-09-09 10:12:00,86.9,68.8,29.78,South,186,11.5,11.5,55,0.00,CLR,,0.00,WeatherDisplay:10.37,2013-09-09 15:12:00,
2013-09-09 10:17:00,87.1,69.5,29.78,South,186,1.2,0.0,56,0.00,CLR,,0.00,WeatherDisplay:10.37,2013-09-09 15:17:00,
2013-09-09 10:22:00,87.5,68.8,29.78,South,185,3.0,3.0,54,0.00,CLR,,0.00,WeatherDisplay:10.37,2013-09-09 15:22:00,
2013-09-09 10:27:00,87.7,68.4,29.78,South,185,4.0,4.0,53,0.00,CLR,,0.00,WeatherDisplay:10.37,2013-09-09 15:27:00,
2013-09-09 10:32:00,88.1,68.8,29.78,South,184,3.5,3.5,53,0.00,CLR,,0.00,WeatherDisplay:10.37,2013-09-09 15:32:00,
2013-09-09 10:37:00,88.6,69.3,29.78,South,185,3.5,3.5,53,0.00,CLR,,0.00,WeatherDisplay:10.37,2013-09-09 15:37:00,
2013-09-09 10:42:00,88.9,69.0,29.78,South,185,2.3,2.3,52,0.00,CLR,,0.00,WeatherDisplay:10.37,2013-09-09 15:42:00,
2013-09-09 10:47:00,89.0,69.1,29.78,South,185,6.9,6.9,52,0.00,CLR,,0.00,WeatherDisplay:10.37,2013-09-09 15:47:00,
2013-09-09 10:52:00,89.3,69.4,29.78,South,185,3.5,3.5,52,0.00,CLR,,0.00,WeatherDisplay:10.37,2013-09-09 15:52:00,
2013-09-09 10:57:00,89.6,69.1,29.78,South,185,4.6,4.6,51,0.00,CLR,,0.00,WeatherDisplay:10.37,2013-09-09 15:57:00,
2013-09-09 11:02:00,89.9,69.3,29.78,South,185,3.5,3.5,51,0.00,CLR,,0.00,WeatherDisplay:10.37,2013-09-09 16:02:00,
2013-09-09 11:07:00,90.1,69.5,29.78,South,185,3.5,3.5,51,0.00,CLR,,0.00,WeatherDisplay:10.37,2013-09-09 16:07:00,
2013-09-09 11:12:00,90.3,69.7,29.78,South,185,3.5,3.5,51,0.00,CLR,,0.00,WeatherDisplay:10.37,2013-09-09 16:12:00,
2013-09-09 11:17:00,90.4,69.8,29.78,South,185,5.8,5.8,51,0.00,CLR,,0.00,WeatherDisplay:10.37,2013-09-09 16:17:00,
2013-09-09 11:22:00,90.4,68.6,29.78,South,185,5.8,5.8,49,0.00,CLR,,0.00,WeatherDisplay:10.37,2013-09-09 16:22:00,
2013-09-09 11:27:00,90.7,70.1,29.78,South,185,3.5,3.5,51,0.00,CLR,,0.00,WeatherDisplay:10.37,2013-09-09 16:27:00,
2013-09-09 11:32:00,91.1,69.9,29.78,South,185,1.2,1.2,50,0.00,CLR,,0.00,WeatherDisplay:10.37,2013-09-09 16:32:00,
2013-09-09 11:37:00,91.2,70.0,29.78,South,184,5.8,5.8,50,0.00,CLR,,0.00,WeatherDisplay:10.37,2013-09-09 16:37:00,
2013-09-09 11:42:00,91.1,69.9,29.78,South,185,1.2,0.0,50,0.00,CLR,,0.00,WeatherDisplay:10.37,2013-09-09 16:42:00,
2013-09-09 11:47:00,91.5,69.6,29.77,South,185,5.8,5.8,49,0.00,CLR,,0.00,WeatherDisplay:10.37,2013-09-09 16:47:00,
2013-09-09 11:52:00,91.5,68.4,29.77,SSW,192,3.5,3.5,47,0.00,CLR,,0.00,WeatherDisplay:10.37,2013-09-09 16:52:00,
2013-09-09 11:57:00,91.8,69.3,29.77,SSW,192,5.8,5.8,48,0.00,CLR,,0.00,WeatherDisplay:10.37,2013-09-09 16:57:00,
2013-09-09 12:02:00,91.9,69.4,29.77,SSW,192,8.1,8.1,48,0.00,CLR,,0.00,WeatherDisplay:10.37,2013-09-09 17:02:00,
2013-09-09 12:07:00,92.4,69.9,29.77,SSW,192,2.3,2.3,48,0.00,CLR,,0.00,WeatherDisplay:10.37,2013-09-09 17:07:00,
2013-09-09 12:12:00,92.8,69.6,29.77,South,191,6.9,6.9,47,0.00,CLR,,0.00,WeatherDisplay:10.37,2013-09-09 17:12:00,
2013-09-09 12:17:00,92.6,69.4,29.77,South,185,13.8,13.8,47,0.00,CLR,,0.00,WeatherDisplay:10.37,2013-09-09 17:17:00,
2013-09-09 12:22:00,92.4,68.6,29.77,South,184,9.2,9.2,46,0.00,CLR,,0.00,WeatherDisplay:10.37,2013-09-09 17:22:00,
2013-09-09 12:27:00,92.6,68.8,29.76,South,187,6.0,6.0,46,0.00,CLR,,0.00,WeatherDisplay:10.37,2013-09-09 17:27:00,
2013-09-09 12:32:00,92.7,68.9,29.76,South,182,12.7,12.7,46,0.00,CLR,,0.00,WeatherDisplay:10.37,2013-09-09 17:32:00,
2013-09-09 12:37:00,92.5,68.7,29.76,South,190,3.5,3.5,46,0.00,CLR,,0.00,WeatherDisplay:10.37,2013-09-09 17:37:00,
2013-09-09 12:42:00,92.9,69.1,29.76,South,191,6.9,6.9,46,0.00,CLR,,0.00,WeatherDisplay:10.37,2013-09-09 17:42:00,
2013-09-09 12:47:00,93.0,67.9,29.76,South,187,13.8,13.8,44,0.00,CLR,,0.00,WeatherDisplay:10.37,2013-09-09 17:47:00,
2013-09-09 12:52:00,93.1,68.6,29.76,South,191,3.5,3.5,45,0.00,CLR,,0.00,WeatherDisplay:10.37,2013-09-09 17:52:00,
2013-09-09 12:57:00,93.7,68.5,29.76,SSW,192,3.5,3.5,44,0.00,CLR,,0.00,WeatherDisplay:10.37,2013-09-09 17:57:00,
2013-09-09 13:02:00,94.1,69.5,29.76,SSW,194,13.0,13.0,45,0.00,CLR,,0.00,WeatherDisplay:10.37,2013-09-09 18:02:00,
2013-09-09 13:07:00,93.8,68.6,29.76,SSW,192,4.6,4.6,44,0.00,CLR,,0.00,WeatherDisplay:10.37,2013-09-09 18:07:00,
2013-09-09 13:12:00,94.2,68.9,29.76,SSW,211,6.0,6.0,44,0.00,CLR,,0.00,WeatherDisplay:10.37,2013-09-09 18:12:00,
2013-09-09 13:17:00,94.1,68.2,29.76,SSW,204,15.0,15.0,43,0.00,CLR,,0.00,WeatherDisplay:10.37,2013-09-09 18:17:00,
2013-09-09 13:22:00,93.6,67.7,29.76,SSW,202,18.0,18.0,43,0.00,CLR,,0.00,WeatherDisplay:10.37,2013-09-09 18:22:00,
2013-09-09 13:27:00,93.7,68.5,29.75,SSW,205,10.0,10.0,44,0.00,CLR,,0.00,WeatherDisplay:10.37,2013-09-09 18:27:00,
2013-09-09 13:32:00,93.7,67.1,29.75,SSW,200,11.5,11.5,42,0.00,CLR,,0.00,WeatherDisplay:10.37,2013-09-09 18:32:00,
2013-09-09 13:37:00,93.4,67.6,29.75,SSW,197,6.9,6.9,43,0.00,CLR,,0.00,WeatherDisplay:10.37,2013-09-09 18:37:00,
2013-09-09 13:42:00,93.8,67.9,29.75,SSW,198,11.5,11.5,43,0.00,CLR,,0.00,WeatherDisplay:10.37,2013-09-09 18:42:00,
2013-09-09 13:47:00,93.8,67.9,29.75,South,189,3.5,3.5,43,0.00,CLR,,0.00,WeatherDisplay:10.37,2013-09-09 18:47:00,
2013-09-09 13:52:00,94.5,69.9,29.75,South,189,5.8,5.8,45,0.00,CLR,,0.00,WeatherDisplay:10.37,2013-09-09 18:52:00,
2013-09-09 13:57:00,94.8,68.8,29.75,South,189,4.0,4.0,43,0.00,CLR,,0.00,WeatherDisplay:10.37,2013-09-09 18:57:00,
2013-09-09 14:02:00,94.8,67.4,29.75,South,186,10.4,10.4,41,0.00,CLR,,0.00,WeatherDisplay:10.37,2013-09-09 19:02:00,
2013-09-09 14:07:00,94.6,68.0,29.75,South,187,5.8,5.8,42,0.00,CLR,,0.00,WeatherDisplay:10.37,2013-09-09 19:07:00,
2013-09-09 14:12:00,94.8,68.8,29.75,South,188,10.4,10.4,43,0.00,CLR,,0.00,WeatherDisplay:10.37,2013-09-09 19:12:00,
2013-09-09 14:17:00,95.1,67.7,29.75,South,187,6.9,6.9,41,0.00,CLR,,0.00,WeatherDisplay:10.37,2013-09-09 19:17:00,
2013-09-09 14:22:00,95.1,67.7,29.75,South,187,13.8,13.8,41,0.00,CLR,,0.00,WeatherDisplay:10.37,2013-09-09 19:22:00,
2013-09-09 14:28:00,95.2,69.2,29.74,South,188,2.0,2.0,43,0.00,CLR,,0.00,WeatherDisplay:10.37,2013-09-09 19:28:00,
2013-09-09 14:33:00,95.6,68.8,29.74,South,188,4.6,4.6,42,0.00,CLR,,0.00,WeatherDisplay:10.37,2013-09-09 19:33:00,
2013-09-09 14:38:00,95.3,66.4,29.74,South,187,5.8,5.8,39,0.00,CLR,,0.00,WeatherDisplay:10.37,2013-09-09 19:38:00,
2013-09-09 14:43:00,95.1,67.0,29.74,South,190,5.8,5.8,40,0.00,CLR,,0.00,WeatherDisplay:10.37,2013-09-09 19:43:00,
2013-09-09 14:48:00,95.4,66.5,29.74,South,190,3.5,3.5,39,0.00,CLR,,0.00,WeatherDisplay:10.37,2013-09-09 19:48:00,
2013-09-09 14:53:00,95.5,66.6,29.74,South,188,10.4,10.4,39,0.00,CLR,,0.00,WeatherDisplay:10.37,2013-09-09 19:53:00,
2013-09-09 14:58:00,95.4,66.5,29.74,South,182,9.2,9.2,39,0.00,CLR,,0.00,WeatherDisplay:10.37,2013-09-09 19:58:00,
2013-09-09 15:03:00,95.3,65.7,29.73,South,179,6.9,6.9,38,0.00,CLR,,0.00,WeatherDisplay:10.37,2013-09-09 20:03:00,
2013-09-09 15:08:00,95.6,66.7,29.73,South,179,3.5,3.5,39,0.00,CLR,,0.00,WeatherDisplay:10.37,2013-09-09 20:08:00,
2013-09-09 15:13:00,95.3,66.4,29.73,South,175,8.1,8.1,39,0.00,CLR,,0.00,WeatherDisplay:10.37,2013-09-09 20:13:00,
2013-09-09 15:18:00,95.2,67.1,29.73,South,173,10.4,10.4,40,0.00,CLR,,0.00,WeatherDisplay:10.37,2013-09-09 20:18:00,
2013-09-09 15:23:00,94.9,66.1,29.73,South,184,9.0,9.0,39,0.00,CLR,,0.00,WeatherDisplay:10.37,2013-09-09 20:23:00,
2013-09-09 15:28:00,94.9,66.1,29.73,South,184,9.2,9.2,39,0.00,CLR,,0.00,WeatherDisplay:10.37,2013-09-09 20:28:00,
2013-09-09 15:33:00,95.2,65.6,29.73,South,186,7.0,7.0,38,0.00,CLR,,0.00,WeatherDisplay:10.37,2013-09-09 20:33:00,
2013-09-09 15:38:00,95.4,65.8,29.73,South,187,5.0,5.0,38,0.00,CLR,,0.00,WeatherDisplay:10.37,2013-09-09 20:38:00,
2013-09-09 15:43:00,95.1,63.9,29.73,SSW,192,11.5,11.5,36,0.00,CLR,,0.00,WeatherDisplay:10.37,2013-09-09 20:43:00,
2013-09-09 15:48:00,94.8,65.2,29.73,South,186,15.0,15.0,38,0.00,CLR,,0.00,WeatherDisplay:10.37,2013-09-09 20:48:00,
2013-09-09 15:53:00,94.7,65.9,29.73,South,185,6.9,6.9,39,0.00,CLR,,0.00,WeatherDisplay:10.37,2013-09-09 20:53:00,
2013-09-09 15:58:00,94.8,65.2,29.73,South,184,5.8,5.8,38,0.00,CLR,,0.00,WeatherDisplay:10.37,2013-09-09 20:58:00,
2013-09-09 16:03:00,95.0,66.2,29.73,South,186,3.5,3.5,39,0.00,CLR,,0.00,WeatherDisplay:10.37,2013-09-09 21:03:00,
2013-09-09 16:08:00,95.4,65.8,29.73,South,186,5.8,5.8,38,0.00,CLR,,0.00,WeatherDisplay:10.37,2013-09-09 21:08:00,
2013-09-09 16:13:00,95.5,65.9,29.73,South,186,5.8,5.8,38,0.00,CLR,,0.00,WeatherDisplay:10.37,2013-09-09 21:13:00,
2013-09-09 16:18:00,95.1,65.5,29.73,South,182,9.2,9.2,38,0.00,CLR,,0.00,WeatherDisplay:10.37,2013-09-09 21:18:00,
2013-09-09 16:23:00,95.0,66.2,29.73,South,181,6.9,6.9,39,0.00,CLR,,0.00,WeatherDisplay:10.37,2013-09-09 21:23:00,
2013-09-09 16:28:00,94.8,66.0,29.73,SSE,168,15.0,15.0,39,0.00,CLR,,0.00,WeatherDisplay:10.37,2013-09-09 21:28:00,
2013-09-09 16:33:00,94.3,66.3,29.73,South,181,16.1,16.1,40,0.00,CLR,,0.00,WeatherDisplay:10.37,2013-09-09 21:33:00,
2013-09-09 16:38:00,94.2,66.9,29.73,South,190,4.6,4.6,41,0.00,CLR,,0.00,WeatherDisplay:10.37,2013-09-09 21:38:00,
2013-09-09 16:43:00,94.4,65.6,29.73,South,190,10.4,10.4,39,0.00,CLR,,0.00,WeatherDisplay:10.37,2013-09-09 21:43:00,
2013-09-09 16:48:00,94.5,65.7,29.73,South,190,5.0,5.0,39,0.00,CLR,,0.00,WeatherDisplay:10.37,2013-09-09 21:48:00,
2013-09-09 16:53:00,94.5,65.7,29.73,South,190,4.6,4.6,39,0.00,CLR,,0.00,WeatherDisplay:10.37,2013-09-09 21:53:00,
2013-09-09 16:58:00,94.4,66.4,29.73,South,190,3.5,3.5,40,0.00,CLR,,0.00,WeatherDisplay:10.37,2013-09-09 21:58:00,
2013-09-09 17:03:00,94.4,66.4,29.73,South,190,4.6,4.6,40,0.00,CLR,,0.00,WeatherDisplay:10.37,2013-09-09 22:03:00,
2013-09-09 17:08:00,94.5,66.4,29.73,South,190,3.5,3.5,40,0.00,CLR,,0.00,WeatherDisplay:10.37,2013-09-09 22:08:00,
2013-09-09 17:13:00,94.2,65.4,29.73,South,179,15.0,15.0,39,0.00,CLR,,0.00,WeatherDisplay:10.37,2013-09-09 22:13:00,
2013-09-09 17:18:00,93.9,64.4,29.73,South,180,12.7,12.7,38,0.00,CLR,,0.00,WeatherDisplay:10.37,2013-09-09 22:18:00,
2013-09-09 17:23:00,93.7,65.0,29.73,South,190,13.8,13.8,39,0.00,CLR,,0.00,WeatherDisplay:10.37,2013-09-09 22:23:00,
2013-09-09 17:28:00,93.5,64.8,29.73,South,191,3.5,3.5,39,0.00,CLR,,0.00,WeatherDisplay:10.37,2013-09-09 22:28:00,
2013-09-09 17:33:00,93.8,65.8,29.73,South,191,4.6,4.6,40,0.00,CLR,,0.00,WeatherDisplay:10.37,2013-09-09 22:33:00,
2013-09-09 17:38:00,93.9,65.9,29.73,South,191,3.5,3.5,40,0.00,CLR,,0.00,WeatherDisplay:10.37,2013-09-09 22:38:00,
2013-09-09 17:43:00,93.7,65.7,29.73,SSW,192,9.2,9.2,40,0.00,CLR,,0.00,WeatherDisplay:10.37,2013-09-09 22:43:00,
2013-09-09 17:48:00,93.3,65.4,29.73,South,191,4.0,4.0,40,0.00,CLR,,0.00,WeatherDisplay:10.37,2013-09-09 22:48:00,
2013-09-09 17:53:00,93.2,65.3,29.73,SSW,192,9.2,9.2,40,0.00,CLR,,0.00,WeatherDisplay:10.37,2013-09-09 22:53:00,
2013-09-09 17:58:00,93.2,65.3,29.73,SSW,192,9.2,9.2,40,0.00,CLR,,0.00,WeatherDisplay:10.37,2013-09-09 22:58:00,
2013-09-09 18:03:00,93.1,65.9,29.73,SSW,192,2.0,2.0,41,0.00,CLR,,0.00,WeatherDisplay:10.37,2013-09-09 23:03:00,
2013-09-09 18:08:00,92.9,64.3,29.73,South,191,9.2,9.2,39,0.00,CLR,,0.00,WeatherDisplay:10.37,2013-09-09 23:08:00,
2013-09-09 18:13:00,92.5,63.9,29.73,SSW,194,4.6,4.6,39,0.00,CLR,,0.00,WeatherDisplay:10.37,2013-09-09 23:13:00,
2013-09-09 18:18:00,92.2,64.4,29.74,SSW,194,3.5,3.5,40,0.00,CLR,,0.00,WeatherDisplay:10.37,2013-09-09 23:18:00,
2013-09-09 18:23:00,91.8,64.0,29.74,SSW,194,1.2,1.2,40,0.00,CLR,,0.00,WeatherDisplay:10.37,2013-09-09 23:23:00,
2013-09-09 18:28:00,91.6,64.6,29.74,SSW,194,6.9,6.9,41,0.00,CLR,,0.00,WeatherDisplay:10.37,2013-09-09 23:28:00,
2013-09-09 18:33:00,91.3,64.3,29.74,SSW,194,1.2,1.2,41,0.00,CLR,,0.00,WeatherDisplay:10.37,2013-09-09 23:33:00,
2013-09-09 18:38:00,91.1,64.8,29.74,SSW,194,1.2,0.0,42,0.00,CLR,,0.00,WeatherDisplay:10.37,2013-09-09 23:38:00,
2013-09-09 18:43:00,90.9,64.6,29.74,SSW,194,3.5,3.5,42,0.00,CLR,,0.00,WeatherDisplay:10.37,2013-09-09 23:43:00,
2013-09-09 18:48:00,90.8,64.5,29.74,SSW,194,3.5,3.5,42,0.00,CLR,,0.00,WeatherDisplay:10.37,2013-09-09 23:48:00,
2013-09-09 18:53:00,90.6,64.4,29.74,SSW,194,5.8,5.8,42,0.00,CLR,,0.00,WeatherDisplay:10.37,2013-09-09 23:53:00,
2013-09-09 18:58:00,90.4,64.9,29.74,SSW,194,3.5,3.5,43,0.00,CLR,,0.00,WeatherDisplay:10.37,2013-09-09 23:58:00,
2013-09-09 19:03:00,90.2,64.7,29.74,SSW,194,3.5,3.5,43,0.00,CLR,,0.00,WeatherDisplay:10.37,2013-09-10 00:03:00,
2013-09-09 19:08:00,90.0,64.5,29.74,SSW,194,6.9,6.9,43,0.00,CLR,,0.00,WeatherDisplay:10.37,2013-09-10 00:08:00,
2013-09-09 19:13:00,89.9,65.1,29.74,SSW,194,2.3,2.3,44,0.00,CLR,,0.00,WeatherDisplay:10.37,2013-09-10 00:13:00,
2013-09-09 19:18:00,89.6,64.8,29.74,SSW,194,10.4,10.4,44,0.00,CLR,,0.00,WeatherDisplay:10.37,2013-09-10 00:18:00,
2013-09-09 19:23:00,89.3,64.5,29.74,SSW,194,10.4,10.4,44,0.00,CLR,,0.00,WeatherDisplay:10.37,2013-09-10 00:23:00,
2013-09-09 19:28:00,89.2,64.4,29.74,SSW,194,10.4,10.4,44,0.00,CLR,,0.00,WeatherDisplay:10.37,2013-09-10 00:28:00,
2013-09-09 19:33:00,89.1,64.3,29.74,SSW,194,3.5,0.0,44,0.00,CLR,,0.00,WeatherDisplay:10.37,2013-09-10 00:33:00,
2013-09-09 19:38:00,88.7,64.0,29.74,SSW,194,4.6,4.6,44,0.00,CLR,,0.00,WeatherDisplay:10.37,2013-09-10 00:38:00,
2013-09-09 19:43:00,88.5,64.4,29.74,SSW,194,1.2,1.2,45,0.00,CLR,,0.00,WeatherDisplay:10.37,2013-09-10 00:43:00,
2013-09-09 19:48:00,88.1,64.7,29.75,SSW,194,1.2,1.2,46,0.00,CLR,,0.00,WeatherDisplay:10.37,2013-09-10 00:48:00,
2013-09-09 19:53:00,87.7,64.4,29.75,SSW,194,6.9,6.9,46,0.00,CLR,,0.00,WeatherDisplay:10.37,2013-09-10 00:53:00,
2013-09-09 19:58:00,87.4,64.7,29.75,SSW,194,3.5,0.0,47,0.00,CLR,,0.00,WeatherDisplay:10.37,2013-09-10 00:58:00,
2013-09-09 20:03:00,87.2,64.5,29.75,SSW,194,2.3,2.3,47,0.00,CLR,,0.00,WeatherDisplay:10.37,2013-09-10 01:03:00,
2013-09-09 20:08:00,87.0,64.3,29.75,SSW,194,3.5,3.5,47,0.00,CLR,,0.00,WeatherDisplay:10.37,2013-09-10 01:08:00,
2013-09-09 20:13:00,86.7,64.7,29.75,SSW,194,0.0,0.0,48,0.00,CLR,,0.00,WeatherDisplay:10.37,2013-09-10 01:13:00,
2013-09-09 20:18:00,86.4,65.0,29.75,SSW,194,3.5,3.5,49,0.00,CLR,,0.00,WeatherDisplay:10.37,2013-09-10 01:18:00,
2013-09-09 20:23:00,86.0,64.6,29.75,SSW,194,3.5,3.5,49,0.00,CLR,,0.00,WeatherDisplay:10.37,2013-09-10 01:23:00,
2013-09-09 20:28:00,85.7,64.3,29.76,SSW,194,0.0,0.0,49,0.00,CLR,,0.00,WeatherDisplay:10.37,2013-09-10 01:28:00,
2013-09-09 20:33:00,85.4,64.6,29.76,SSW,194,0.0,0.1,50,0.00,CLR,,0.00,WeatherDisplay:10.37,2013-09-10 01:33:00,
2013-09-09 20:38:00,85.2,64.5,29.76,SSW,194,1.2,1.2,50,0.00,CLR,,0.00,WeatherDisplay:10.37,2013-09-10 01:38:00,
2013-09-09 20:43:00,84.9,64.2,29.76,SSW,194,1.2,1.2,50,0.00,CLR,,0.00,WeatherDisplay:10.37,2013-09-10 01:43:00,
2013-09-09 20:48:00,84.8,64.1,29.76,SSW,194,1.2,1.2,50,0.00,CLR,,0.00,WeatherDisplay:10.37,2013-09-10 01:48:00,
2013-09-09 20:53:00,84.7,64.0,29.76,SSW,194,3.5,3.5,50,0.00,CLR,,0.00,WeatherDisplay:10.37,2013-09-10 01:53:00,
2013-09-09 20:58:00,84.6,63.9,29.76,SSW,194,3.5,3.5,50,0.00,CLR,,0.00,WeatherDisplay:10.37,2013-09-10 01:58:00,
2013-09-09 21:03:00,84.5,63.8,29.76,SSW,194,3.5,3.5,50,0.00,CLR,,0.00,WeatherDisplay:10.37,2013-09-10 02:03:00,
2013-09-09 21:08:00,84.5,63.8,29.76,SSW,194,1.2,1.2,50,0.00,CLR,,0.00,WeatherDisplay:10.37,2013-09-10 02:08:00,
2013-09-09 21:13:00,84.5,63.8,29.76,SSW,194,5.8,5.8,50,0.00,CLR,,0.00,WeatherDisplay:10.37,2013-09-10 02:13:00,
2013-09-09 21:18:00,84.4,63.7,29.77,SSW,194,3.5,3.5,50,0.00,CLR,,0.00,WeatherDisplay:10.37,2013-09-10 02:18:00,
2013-09-09 21:23:00,84.2,64.1,29.77,SSW,194,1.2,1.2,51,0.00,CLR,,0.00,WeatherDisplay:10.37,2013-09-10 02:23:00,
2013-09-09 21:28:00,83.9,63.8,29.77,SSW,194,1.2,1.2,51,0.00,CLR,,0.00,WeatherDisplay:10.37,2013-09-10 02:28:00,
2013-09-09 21:33:00,83.6,64.1,29.77,SSW,194,3.5,3.5,52,0.00,CLR,,0.00,WeatherDisplay:10.37,2013-09-10 02:33:00,
2013-09-09 21:38:00,83.3,63.8,29.77,SSW,194,3.5,3.5,52,0.00,CLR,,0.00,WeatherDisplay:10.37,2013-09-10 02:38:00,
2013-09-09 21:43:00,83.1,64.2,29.77,SSW,194,3.5,3.5,53,0.00,CLR,,0.00,WeatherDisplay:10.37,2013-09-10 02:43:00,
2013-09-09 21:48:00,82.9,64.0,29.77,SSW,194,3.5,3.5,53,0.00,CLR,,0.00,WeatherDisplay:10.37,2013-09-10 02:48:00,
2013-09-09 21:53:00,82.7,64.4,29.77,SSW,194,3.5,3.5,54,0.00,CLR,,0.00,WeatherDisplay:10.37,2013-09-10 02:53:00,
2013-09-09 21:58:00,82.6,64.3,29.77,SSW,194,4.6,4.6,54,0.00,CLR,,0.00,WeatherDisplay:10.37,2013-09-10 02:58:00,
2013-09-09 22:03:00,82.5,64.7,29.77,SSW,194,6.0,6.0,55,0.00,CLR,,0.00,WeatherDisplay:10.37,2013-09-10 03:03:00,
2013-09-09 22:08:00,82.3,64.5,29.77,SSW,194,3.5,3.5,55,0.00,CLR,,0.00,WeatherDisplay:10.37,2013-09-10 03:08:00,
2013-09-09 22:13:00,82.2,64.4,29.78,SSW,194,4.0,4.0,55,0.00,CLR,,0.00,WeatherDisplay:10.37,2013-09-10 03:13:00,
2013-09-09 22:18:00,82.1,64.8,29.78,SSW,194,5.0,5.0,56,0.00,CLR,,0.00,WeatherDisplay:10.37,2013-09-10 03:18:00,
2013-09-09 22:23:00,82.1,64.8,29.78,SSW,194,5.8,5.8,56,0.00,CLR,,0.00,WeatherDisplay:10.37,2013-09-10 03:23:00,
2013-09-09 22:28:00,82.1,64.8,29.78,SSW,194,2.3,2.3,56,0.00,CLR,,0.00,WeatherDisplay:10.37,2013-09-10 03:28:00,
2013-09-09 22:33:00,82.0,64.8,29.78,SSW,194,4.6,4.6,56,0.00,CLR,,0.00,WeatherDisplay:10.37,2013-09-10 03:33:00,
2013-09-09 22:38:00,81.9,64.7,29.78,SSW,194,5.8,5.8,56,0.00,CLR,,0.00,WeatherDisplay:10.37,2013-09-10 03:38:00,
2013-09-09 22:43:00,81.9,64.7,29.78,SSW,194,3.5,3.5,56,0.00,CLR,,0.00,WeatherDisplay:10.37,2013-09-10 03:43:00,
2013-09-09 22:48:00,81.8,65.1,29.78,SSW,194,3.5,3.5,57,0.00,CLR,,0.00,WeatherDisplay:10.37,2013-09-10 03:48:00,
2013-09-09 22:53:00,81.7,65.0,29.78,SSW,194,5.8,5.8,57,0.00,CLR,,0.00,WeatherDisplay:10.37,2013-09-10 03:53:00,
2013-09-09 22:58:00,81.7,65.0,29.78,SSW,194,6.9,6.9,57,0.00,CLR,,0.00,WeatherDisplay:10.37,2013-09-10 03:58:00,
2013-09-09 23:01:00,81.8,65.1,29.78,SSW,194,4.6,4.6,57,0.00,CLR,,0.00,WeatherDisplay:10.37,2013-09-10 04:01:00,
2013-09-09 23:02:00,81.8,65.1,29.78,SSW,194,9.2,9.2,57,0.00,CLR,,0.00,WeatherDisplay:10.37,2013-09-10 04:02:00,
2013-09-09 23:07:00,81.7,65.0,29.78,SSW,194,4.6,4.6,57,0.00,CLR,,0.00,WeatherDisplay:10.37,2013-09-10 04:07:00,
2013-09-09 23:12:00,81.6,64.9,29.78,SSW,194,6.0,6.0,57,0.00,CLR,,0.00,WeatherDisplay:10.37,2013-09-10 04:12:00,
2013-09-09 23:17:00,81.5,64.8,29.78,SSW,194,3.5,3.5,57,0.00,CLR,,0.00,WeatherDisplay:10.37,2013-09-10 04:17:00,
2013-09-09 23:22:00,81.4,64.7,29.79,SSW,194,5.8,5.8,57,0.00,CLR,,0.00,WeatherDisplay:10.37,2013-09-10 04:22:00,
2013-09-09 23:27:00,81.3,65.1,29.79,SSW,194,3.5,3.5,58,0.00,CLR,,0.00,WeatherDisplay:10.37,2013-09-10 04:27:00,
2013-09-09 23:32:00,81.2,65.0,29.79,SSW,194,3.5,3.5,58,0.00,CLR,,0.00,WeatherDisplay:10.37,2013-09-10 04:32:00,
2013-09-09 23:37:00,81.0,64.8,29.79,SSW,194,4.6,4.6,58,0.00,CLR,,0.00,WeatherDisplay:10.37,2013-09-10 04:37:00,
2013-09-09 23:42:00,80.9,65.2,29.79,SSW,194,3.5,3.5,59,0.00,CLR,,0.00,WeatherDisplay:10.37,2013-09-10 04:42:00,
2013-09-09 23:47:00,80.8,65.1,29.79,SSW,194,3.5,3.5,59,0.00,CLR,,0.00,WeatherDisplay:10.37,2013-09-10 04:47:00,
2013-09-09 23:52:00,80.7,65.0,29.79,SSW,194,3.5,3.5,59,0.00,CLR,,0.00,WeatherDisplay:10.37,2013-09-10 04:52:00,
2013-09-09 23:57:00,80.6,64.9,29.79,SSW,194,6.9,6.9,59,0.00,CLR,,0.00,WeatherDisplay:10.37,2013-09-10 04:57:00,